createdAt,value
2023-04-22T00:00:59.797Z,93.00
2023-04-22T00:03:28.856Z,93.00
2023-04-22T00:05:57.579Z,93.00
2023-04-22T00:08:26.597Z,93.00
2023-04-22T00:10:54.898Z,93.00
2023-04-22T00:13:23.141Z,93.00
2023-04-22T00:15:51.648Z,93.00
2023-04-22T00:18:21.932Z,93.00
2023-04-22T00:20:50.143Z,93.00
2023-04-22T00:23:19.147Z,93.00
2023-04-22T00:25:47.458Z,93.00
2023-04-22T00:28:15.662Z,93.00
2023-04-22T00:30:43.853Z,92.90
2023-04-22T00:33:12.099Z,93.00
2023-04-22T00:35:41.983Z,93.00
2023-04-22T00:38:10.202Z,93.00
2023-04-22T00:40:39.134Z,93.00
2023-04-22T00:43:07.365Z,92.90
2023-04-22T00:45:37.738Z,93.00
2023-04-22T00:48:06.583Z,92.90
2023-04-22T00:50:34.920Z,93.00
2023-04-22T00:53:04.611Z,93.00
2023-04-22T00:55:32.957Z,92.90
2023-04-22T00:58:03.833Z,93.00
2023-04-22T01:00:32.118Z,93.00
2023-04-22T01:03:01.038Z,93.30
2023-04-22T01:05:31.936Z,93.00
2023-04-22T01:08:00.479Z,93.00
2023-04-22T01:10:30.316Z,92.90
2023-04-22T01:12:58.564Z,93.00
2023-04-22T01:15:28.687Z,93.00
2023-04-22T01:17:58.172Z,93.40
2023-04-22T01:20:29.525Z,93.00
2023-04-22T01:22:59.188Z,93.00
2023-04-22T01:25:28.830Z,93.00
2023-04-22T01:27:57.554Z,93.00
2023-04-22T01:30:25.831Z,93.00
2023-04-22T01:32:54.657Z,93.00
2023-04-22T01:35:22.932Z,93.00
2023-04-22T01:37:52.306Z,93.00
2023-04-22T01:40:22.692Z,93.00
2023-04-22T01:42:52.949Z,93.00
2023-04-22T01:45:21.258Z,93.00
2023-04-22T01:47:49.590Z,93.00
2023-04-22T01:50:17.957Z,93.00
2023-04-22T01:52:47.137Z,93.00
2023-04-22T01:55:16.014Z,93.00
2023-04-22T01:57:45.349Z,93.00
2023-04-22T02:00:15.999Z,93.00
2023-04-22T02:02:48.464Z,93.00
2023-04-22T02:05:16.946Z,93.00
2023-04-22T02:07:47.420Z,93.00
2023-04-22T02:10:18.086Z,93.00
2023-04-22T02:12:46.280Z,93.00
2023-04-22T02:15:17.280Z,93.00
2023-04-22T02:17:46.193Z,93.00
2023-04-22T02:20:14.630Z,93.00
2023-04-22T02:22:45.221Z,93.00
2023-04-22T02:25:14.082Z,93.00
2023-04-22T02:27:42.454Z,93.00
2023-04-22T02:30:11.340Z,93.00
2023-04-22T02:32:41.438Z,93.00
2023-04-22T02:35:11.190Z,93.00
2023-04-22T02:37:39.904Z,93.00
2023-04-22T02:40:09.738Z,93.00
2023-04-22T02:42:38.014Z,93.00
2023-04-22T02:45:07.481Z,93.00
2023-04-22T02:47:36.851Z,93.00
2023-04-22T02:50:08.852Z,93.00
2023-04-22T02:52:37.180Z,93.00
2023-04-22T02:55:06.199Z,92.90
2023-04-22T02:57:34.555Z,93.00
2023-04-22T03:00:04.404Z,93.00
2023-04-22T03:02:33.058Z,93.00
2023-04-22T03:05:19.709Z,93.30
2023-04-22T03:07:49.315Z,93.00
2023-04-22T03:10:18.365Z,93.00
2023-04-22T03:12:46.729Z,93.00
2023-04-22T03:15:15.265Z,93.00
2023-04-22T03:17:43.461Z,93.00
2023-04-22T03:20:15.111Z,93.00
2023-04-22T03:22:45.282Z,93.00
2023-04-22T03:25:15.493Z,93.00
2023-04-22T03:27:48.871Z,93.00
2023-04-22T03:30:17.242Z,93.00
2023-04-22T03:32:45.540Z,93.00
2023-04-22T03:35:27.172Z,93.00
2023-04-22T03:37:59.097Z,93.00
2023-04-22T03:40:32.552Z,93.00
2023-04-22T03:43:03.683Z,93.40
2023-04-22T03:45:32.216Z,93.00
2023-04-22T03:48:16.112Z,93.10
2023-04-22T03:50:49.440Z,93.10
2023-04-22T03:53:19.790Z,93.10
2023-04-22T03:55:48.343Z,93.10
2023-04-22T03:58:18.830Z,93.10
2023-04-22T04:00:48.506Z,93.10
2023-04-22T04:03:19.129Z,93.10
2023-04-22T04:05:50.766Z,93.10
2023-04-22T04:08:20.423Z,93.10
2023-04-22T04:10:48.684Z,93.10
2023-04-22T04:13:17.571Z,93.10
2023-04-22T04:16:08.768Z,93.20
2023-04-22T04:18:40.100Z,93.50
2023-04-22T04:21:08.544Z,93.20
2023-04-22T04:23:43.202Z,93.20
2023-04-22T04:26:11.904Z,93.20
2023-04-22T04:28:43.615Z,93.20
2023-04-22T04:31:12.203Z,93.20
2023-04-22T04:33:40.788Z,93.20
2023-04-22T04:36:10.242Z,93.20
2023-04-22T04:38:39.086Z,93.20
2023-04-22T04:41:09.686Z,93.20
2023-04-22T04:43:38.808Z,93.20
2023-04-22T04:46:23.535Z,93.20
2023-04-22T04:48:54.031Z,93.20
2023-04-22T04:51:22.807Z,93.20
2023-04-22T04:53:54.593Z,93.30
2023-04-22T04:56:24.952Z,93.20
2023-04-22T04:58:53.474Z,93.30
2023-04-22T05:01:25.899Z,93.30
2023-04-22T05:03:55.755Z,93.30
2023-04-22T05:06:24.180Z,93.20
2023-04-22T05:09:00.505Z,93.30
2023-04-22T05:11:30.137Z,93.30
2023-04-22T05:14:00.902Z,93.40
2023-04-22T05:16:34.571Z,93.30
2023-04-22T05:19:03.084Z,93.40
2023-04-22T05:21:31.397Z,93.40
2023-04-22T05:24:00.219Z,93.30
2023-04-22T05:26:29.983Z,93.40
2023-04-22T05:28:59.511Z,93.40
2023-04-22T05:31:29.124Z,93.30
2023-04-22T05:33:58.457Z,93.30
2023-04-22T05:36:30.556Z,93.30
2023-04-22T05:38:59.851Z,93.30
2023-04-22T05:41:30.188Z,93.40
2023-04-22T05:43:59.644Z,93.40
2023-04-22T05:46:31.067Z,93.40
2023-04-22T05:48:59.457Z,93.30
2023-04-22T05:51:47.392Z,93.30
2023-04-22T05:54:18.849Z,93.30
2023-04-22T05:56:48.800Z,93.40
2023-04-22T05:59:19.527Z,93.30
2023-04-22T06:01:48.807Z,93.30
2023-04-22T06:04:21.097Z,93.30
2023-04-22T06:06:49.966Z,93.30
2023-04-22T06:09:18.245Z,93.20
2023-04-22T06:11:48.107Z,93.20
2023-04-22T06:14:16.485Z,93.10
2023-04-22T06:16:46.385Z,93.10
2023-04-22T06:19:14.652Z,93.10
2023-04-22T06:21:43.184Z,93.10
2023-04-22T06:24:11.459Z,93.10
2023-04-22T06:26:39.849Z,93.10
2023-04-22T06:29:09.529Z,93.10
2023-04-22T06:31:40.056Z,93.10
2023-04-22T06:34:08.425Z,93.10
2023-04-22T06:36:38.400Z,93.10
2023-04-22T06:39:07.877Z,93.10
2023-04-22T06:41:54.657Z,93.20
2023-04-22T06:44:42.707Z,93.20
2023-04-22T06:47:23.691Z,93.20
2023-04-22T06:50:01.224Z,93.20
2023-04-22T06:52:38.645Z,93.20
2023-04-22T06:55:08.014Z,93.30
2023-04-22T06:57:36.477Z,93.40
2023-04-22T07:00:08.488Z,93.40
2023-04-22T07:02:39.299Z,93.40
2023-04-22T07:05:08.141Z,93.40
2023-04-22T07:07:36.576Z,93.40
2023-04-22T07:10:06.039Z,93.30
2023-04-22T07:12:40.823Z,93.30
2023-04-22T07:15:11.249Z,93.60
2023-04-22T07:17:39.962Z,93.20
2023-04-22T07:20:09.585Z,93.20
2023-04-22T07:22:37.835Z,93.10
2023-04-22T07:25:07.374Z,93.00
2023-04-22T07:27:37.195Z,93.00
2023-04-22T07:30:08.019Z,93.00
2023-04-22T07:32:37.721Z,92.90
2023-04-22T07:35:06.760Z,92.90
2023-04-22T07:37:34.990Z,92.90
2023-04-22T07:40:03.271Z,92.70
2023-04-22T07:42:31.627Z,92.70
2023-04-22T07:44:59.834Z,92.60
2023-04-22T07:47:28.149Z,92.60
2023-04-22T07:49:57.909Z,92.50
2023-04-22T07:52:26.297Z,92.50
2023-04-22T07:54:54.639Z,92.40
2023-04-22T07:57:23.330Z,92.50
2023-04-22T07:59:52.415Z,92.90
2023-04-22T08:02:21.131Z,92.40
2023-04-22T08:04:49.502Z,92.50
2023-04-22T08:09:50.457Z,92.30
2023-04-22T08:12:18.874Z,92.20
2023-04-22T08:14:47.216Z,92.10
2023-04-22T08:17:15.536Z,92.10
2023-04-22T08:19:43.726Z,92.10
2023-04-22T08:22:13.660Z,92.00
2023-04-22T08:24:43.308Z,92.00
2023-04-22T08:27:12.185Z,91.90
2023-04-22T08:29:40.862Z,91.90
2023-04-22T08:32:09.490Z,91.90
2023-04-22T08:34:38.991Z,91.90
2023-04-22T08:37:07.568Z,91.90
2023-04-22T08:39:35.951Z,91.90
2023-04-22T08:42:06.323Z,91.90
2023-04-22T08:44:36.765Z,91.90
2023-04-22T08:47:05.668Z,91.90
2023-04-22T08:49:36.594Z,91.80
2023-04-22T08:52:05.003Z,91.90
2023-04-22T08:54:34.403Z,91.80
2023-04-22T08:57:03.559Z,91.90
2023-04-22T08:59:33.480Z,91.80
2023-04-22T09:02:03.359Z,91.80
2023-04-22T09:04:32.202Z,91.80
2023-04-22T09:07:01.885Z,91.90
2023-04-22T09:09:31.847Z,91.80
2023-04-22T09:12:00.313Z,91.80
2023-04-22T09:14:28.915Z,91.90
2023-04-22T09:16:59.810Z,91.80
2023-04-22T09:19:28.268Z,91.80
2023-04-22T09:21:59.242Z,91.80
2023-04-22T09:24:27.656Z,92.10
2023-04-22T09:26:57.245Z,91.80
2023-04-22T09:29:31.843Z,91.80
2023-04-22T09:32:01.695Z,91.90
2023-04-22T09:34:30.090Z,91.90
2023-04-22T09:36:58.343Z,91.90
2023-04-22T09:39:26.636Z,91.90
2023-04-22T09:41:56.627Z,91.90
2023-04-22T09:44:29.015Z,91.80
2023-04-22T09:46:57.326Z,91.80
2023-04-22T09:49:28.715Z,91.70
2023-04-22T09:51:58.692Z,91.80
2023-04-22T09:54:34.285Z,91.80
2023-04-22T09:57:04.038Z,91.80
2023-04-22T09:59:32.496Z,91.80
2023-04-22T10:02:04.197Z,91.80
2023-04-22T10:04:34.692Z,91.80
2023-04-22T10:07:03.660Z,91.80
2023-04-22T10:09:32.201Z,91.80
2023-04-22T10:12:01.493Z,91.80
2023-04-22T10:14:29.805Z,91.70
2023-04-22T10:17:00.350Z,91.70
2023-04-22T10:19:29.257Z,91.70
2023-04-22T10:22:02.457Z,91.70
2023-04-22T10:24:36.571Z,92.10
2023-04-22T10:27:06.757Z,91.80
2023-04-22T10:29:38.873Z,91.80
2023-04-22T10:32:24.840Z,91.80
2023-04-22T10:35:09.518Z,91.90
2023-04-22T10:37:42.851Z,91.80
2023-04-22T10:40:16.112Z,92.00
2023-04-22T10:42:48.999Z,92.40
2023-04-22T10:45:17.437Z,92.60
2023-04-22T10:47:46.512Z,92.60
2023-04-22T10:50:21.240Z,92.70
2023-04-22T10:52:53.766Z,92.60
2023-04-22T10:55:22.487Z,92.50
2023-04-22T10:57:52.121Z,92.60
2023-04-22T11:00:53.359Z,92.40
2023-04-22T11:03:28.749Z,92.40
2023-04-22T11:06:17.737Z,92.40
2023-04-22T11:08:48.482Z,92.30
2023-04-22T11:11:19.262Z,92.30
2023-04-22T11:13:51.008Z,92.30
2023-04-22T11:16:23.428Z,92.30
2023-04-22T11:18:51.959Z,92.30
2023-04-22T11:21:21.763Z,92.30
2023-04-22T11:23:53.626Z,92.30
2023-04-22T11:26:34.911Z,92.30
2023-04-22T11:29:03.509Z,92.10
2023-04-22T11:31:32.058Z,92.10
2023-04-22T11:34:00.675Z,92.10
2023-04-22T11:36:29.051Z,92.10
2023-04-22T11:38:58.774Z,92.10
2023-04-22T11:41:30.059Z,92.10
2023-04-22T11:43:58.352Z,92.10
2023-04-22T11:46:31.381Z,92.10
2023-04-22T11:49:14.008Z,92.10
2023-04-22T11:51:54.399Z,92.00
2023-04-22T11:54:33.602Z,92.00
2023-04-22T11:57:04.096Z,92.00
2023-04-22T11:59:32.434Z,92.00
2023-04-22T12:02:01.068Z,91.90
2023-04-22T12:04:29.360Z,91.80
2023-04-22T12:06:58.071Z,91.80
2023-04-22T12:09:26.876Z,91.80
2023-04-22T12:11:57.237Z,91.80
2023-04-22T12:14:32.881Z,91.80
2023-04-22T12:17:04.661Z,91.80
2023-04-22T12:19:33.552Z,91.70
2023-04-22T12:22:02.186Z,91.80
2023-04-22T12:24:30.875Z,91.80
2023-04-22T12:27:01.348Z,91.80
2023-04-22T12:29:32.831Z,91.60
2023-04-22T12:32:01.213Z,91.50
2023-04-22T12:34:29.469Z,91.40
2023-04-22T12:36:57.762Z,91.20
2023-04-22T12:39:26.222Z,91.30
2023-04-22T12:41:54.608Z,91.10
2023-04-22T12:44:25.247Z,91.10
2023-04-22T12:46:53.785Z,91.10
2023-04-22T12:49:22.311Z,91.20
2023-04-22T12:51:51.327Z,91.30
2023-04-22T12:54:20.386Z,91.20
2023-04-22T12:56:49.323Z,91.30
2023-04-22T12:59:17.619Z,91.20
2023-04-22T13:01:47.484Z,91.20
2023-04-22T13:04:15.924Z,91.30
2023-04-22T13:06:44.488Z,91.30
2023-04-22T13:09:12.985Z,91.30
2023-04-22T13:11:41.609Z,91.30
2023-04-22T13:14:10.328Z,91.70
2023-04-22T13:16:38.759Z,91.40
2023-04-22T13:19:08.461Z,91.40
2023-04-22T13:21:36.892Z,91.40
2023-04-22T13:24:05.452Z,91.40
2023-04-22T13:26:34.072Z,91.40
2023-04-22T13:29:02.900Z,91.50
2023-04-22T13:31:31.413Z,91.50
2023-04-22T13:33:59.751Z,91.50
2023-04-22T13:36:29.553Z,91.60
2023-04-22T13:38:58.761Z,91.70
2023-04-22T13:41:27.027Z,91.80
2023-04-22T13:43:56.085Z,91.80
2023-04-22T13:46:25.207Z,91.90
2023-04-22T13:48:54.208Z,91.90
2023-04-22T13:51:22.488Z,91.90
2023-04-22T13:53:52.150Z,91.90
2023-04-22T13:56:20.556Z,91.90
2023-04-22T13:58:48.928Z,92.00
2023-04-22T14:01:17.389Z,92.00
2023-04-22T14:03:46.656Z,92.10
2023-04-22T14:06:15.795Z,92.10
2023-04-22T14:08:44.228Z,92.00
2023-04-22T14:11:14.280Z,92.10
2023-04-22T14:13:42.654Z,92.20
2023-04-22T14:16:12.040Z,92.10
2023-04-22T14:18:41.285Z,92.10
2023-04-22T14:21:10.432Z,92.10
2023-04-22T14:23:40.028Z,92.10
2023-04-22T14:26:10.157Z,92.10
2023-04-22T14:28:41.653Z,92.10
2023-04-22T14:31:10.583Z,92.10
2023-04-22T14:33:39.050Z,92.00
2023-04-22T14:36:07.907Z,92.00
2023-04-22T14:38:36.278Z,92.10
2023-04-22T14:41:06.017Z,92.10
2023-04-22T14:43:34.695Z,92.00
2023-04-22T14:46:04.841Z,92.00
2023-04-22T14:48:35.409Z,92.00
2023-04-22T14:51:03.916Z,92.00
2023-04-22T14:53:32.791Z,92.00
2023-04-22T14:56:01.178Z,92.10
2023-04-22T14:58:31.444Z,92.00
2023-04-22T15:01:00.481Z,92.00
2023-04-22T15:03:30.833Z,92.00
2023-04-22T15:05:59.296Z,92.00
2023-04-22T15:08:27.750Z,92.00
2023-04-22T15:10:56.148Z,92.00
2023-04-22T15:13:24.523Z,92.00
2023-04-22T15:15:55.589Z,92.00
2023-04-22T15:18:24.913Z,92.00
2023-04-22T15:20:54.583Z,92.00
2023-04-22T15:23:23.534Z,92.00
2023-04-22T15:25:51.918Z,92.00
2023-04-22T15:28:20.275Z,92.00
2023-04-22T15:30:48.739Z,92.00
2023-04-22T15:33:17.122Z,92.00
2023-04-22T15:35:49.686Z,92.00
2023-04-22T15:38:19.541Z,92.00
2023-04-22T15:40:47.873Z,92.00
2023-04-22T15:43:16.290Z,92.00
2023-04-22T15:45:44.747Z,92.00
2023-04-22T15:48:13.112Z,92.40
2023-04-22T15:50:41.771Z,92.00
2023-04-22T15:53:10.444Z,92.00
2023-04-22T15:55:40.134Z,92.10
2023-04-22T15:58:08.482Z,92.10
2023-04-22T16:00:37.145Z,92.00
2023-04-22T16:03:05.919Z,92.00
2023-04-22T16:05:34.826Z,92.40
2023-04-22T16:08:03.610Z,92.10
2023-04-22T16:10:32.001Z,92.10
2023-04-22T16:13:01.686Z,92.10
2023-04-22T16:15:29.923Z,92.10
2023-04-22T16:17:58.375Z,92.10
2023-04-22T16:20:26.674Z,92.10
2023-04-22T16:22:54.992Z,92.10
2023-04-22T16:25:23.333Z,92.20
2023-04-22T16:27:51.870Z,92.20
2023-04-22T16:30:21.731Z,92.20
2023-04-22T16:32:50.405Z,92.20
2023-04-22T16:35:18.764Z,92.20
2023-04-22T16:37:47.932Z,92.30
2023-04-22T16:40:16.390Z,92.30
2023-04-22T16:42:44.874Z,92.30
2023-04-22T16:45:13.450Z,92.30
2023-04-22T16:47:43.198Z,92.30
2023-04-22T16:50:12.460Z,92.30
2023-04-22T16:52:41.086Z,92.60
2023-04-22T16:55:10.066Z,92.30
2023-04-22T16:57:38.402Z,92.30
2023-04-22T17:00:08.318Z,92.30
2023-04-22T17:02:36.928Z,92.30
2023-04-22T17:05:07.450Z,92.30
2023-04-22T17:07:35.951Z,92.30
2023-04-22T17:10:07.928Z,92.30
2023-04-22T17:12:36.437Z,92.30
2023-04-22T17:15:05.284Z,92.30
2023-04-22T17:17:33.782Z,92.30
2023-04-22T17:20:02.649Z,92.40
2023-04-22T17:22:32.538Z,92.30
2023-04-22T17:25:00.824Z,92.30
2023-04-22T17:27:29.135Z,92.40
2023-04-22T17:29:57.484Z,92.40
2023-04-22T17:32:26.174Z,92.40
2023-04-22T17:34:57.013Z,92.40
2023-04-22T17:37:25.462Z,92.40
2023-04-22T17:39:57.381Z,92.40
2023-04-22T17:42:38.844Z,92.40
2023-04-22T17:45:12.908Z,92.40
2023-04-22T17:47:41.917Z,92.40
2023-04-22T17:50:10.962Z,92.40
2023-04-22T17:52:39.228Z,92.40
2023-04-22T17:55:10.642Z,92.40
2023-04-22T17:57:39.000Z,92.50
2023-04-22T18:00:09.693Z,92.50
2023-04-22T18:02:40.243Z,92.50
2023-04-22T18:05:09.182Z,92.40
2023-04-22T18:07:39.652Z,92.40
2023-04-22T18:10:11.626Z,92.30
2023-04-22T18:12:40.399Z,92.30
2023-04-22T18:15:09.216Z,92.30
2023-04-22T18:17:38.041Z,92.30
2023-04-22T18:20:17.423Z,92.30
2023-04-22T18:22:48.328Z,92.30
2023-04-22T18:25:17.934Z,92.60
2023-04-22T18:27:46.301Z,92.30
2023-04-22T18:30:14.940Z,92.30
2023-04-22T18:32:43.428Z,92.30
2023-04-22T18:35:11.729Z,92.30
2023-04-22T18:37:40.005Z,92.30
2023-04-22T18:40:09.736Z,92.30
2023-04-22T18:42:39.594Z,92.40
2023-04-22T18:45:08.990Z,92.40
2023-04-22T18:47:37.353Z,92.40
2023-04-22T18:50:06.350Z,92.40
2023-04-22T18:52:34.737Z,92.40
2023-04-22T18:55:03.225Z,92.40
2023-04-22T18:57:32.929Z,92.40
2023-04-22T19:00:02.749Z,92.80
2023-04-22T19:02:33.802Z,92.40
2023-04-22T19:05:03.893Z,92.40
2023-04-22T19:07:32.113Z,92.40
2023-04-22T19:10:00.440Z,92.40
2023-04-22T19:12:28.883Z,92.40
2023-04-22T19:14:59.625Z,92.50
2023-04-22T19:17:29.610Z,92.40
2023-04-22T19:19:57.954Z,92.40
2023-04-22T19:22:26.428Z,92.40
2023-04-22T19:24:54.630Z,92.50
2023-04-22T19:27:22.931Z,92.40
2023-04-22T19:29:53.450Z,92.50
2023-04-22T19:32:22.148Z,92.50
2023-04-22T19:34:51.941Z,92.40
2023-04-22T19:37:20.405Z,92.50
2023-04-22T19:39:48.793Z,92.50
2023-04-22T19:42:18.169Z,92.50
2023-04-22T19:44:48.229Z,92.50
2023-04-22T19:47:16.770Z,92.90
2023-04-22T19:49:45.496Z,92.50
2023-04-22T19:52:15.970Z,92.50
2023-04-22T19:54:47.844Z,92.50
2023-04-22T19:57:16.706Z,92.50
2023-04-22T19:59:45.806Z,92.50
2023-04-22T20:02:15.842Z,92.50
2023-04-22T20:04:45.191Z,92.50
2023-04-22T20:07:16.406Z,92.50
2023-04-22T20:09:46.587Z,92.50
2023-04-22T20:12:15.001Z,92.50
2023-04-22T20:14:45.004Z,92.50
2023-04-22T20:17:13.654Z,92.50
2023-04-22T20:19:42.437Z,92.40
2023-04-22T20:22:13.019Z,92.50
2023-04-22T20:24:45.074Z,92.40
2023-04-22T20:27:13.769Z,92.40
2023-04-22T20:29:43.593Z,92.40
2023-04-22T20:32:12.331Z,92.40
2023-04-22T20:34:41.609Z,92.40
2023-04-22T20:37:12.337Z,92.30
2023-04-22T20:39:44.416Z,92.70
2023-04-22T20:42:13.091Z,92.40
2023-04-22T20:44:41.615Z,92.40
2023-04-22T20:47:10.920Z,92.40
2023-04-22T20:49:40.500Z,92.40
2023-04-22T20:52:09.431Z,92.40
2023-04-22T20:54:37.866Z,92.40
2023-04-22T20:57:08.892Z,92.40
2023-04-22T20:59:37.443Z,92.50
2023-04-22T21:02:06.694Z,92.40
2023-04-22T21:04:36.226Z,92.40
2023-04-22T21:07:07.222Z,92.40
2023-04-22T21:09:36.166Z,92.50
2023-04-22T21:12:05.022Z,92.40
2023-04-22T21:14:35.248Z,92.40
2023-04-22T21:17:06.817Z,92.40
2023-04-22T21:19:35.956Z,92.40
2023-04-22T21:22:06.594Z,92.40
2023-04-22T21:24:35.998Z,92.40
2023-04-22T21:27:04.891Z,92.40
2023-04-22T21:29:35.028Z,92.40
2023-04-22T21:32:09.165Z,92.40
2023-04-22T21:34:38.618Z,92.40
2023-04-22T21:37:08.144Z,92.40
2023-04-22T21:39:36.757Z,92.40
2023-04-22T21:42:07.963Z,92.80
2023-04-22T21:44:38.767Z,92.80
2023-04-22T21:47:07.276Z,92.40
2023-04-22T21:49:35.817Z,92.40
2023-04-22T21:52:04.156Z,92.40
2023-04-22T21:54:32.485Z,92.40
2023-04-22T21:57:01.427Z,92.40
2023-04-22T21:59:29.713Z,92.40
2023-04-22T22:01:59.561Z,92.80
2023-04-22T22:04:28.128Z,92.40
2023-04-22T22:06:56.697Z,92.40
2023-04-22T22:09:25.082Z,92.50
2023-04-22T22:11:53.411Z,92.50
2023-04-22T22:14:21.637Z,92.50
2023-04-22T22:16:53.847Z,92.40
2023-04-22T22:19:27.709Z,92.50
2023-04-22T22:21:55.892Z,92.40
2023-04-22T22:24:24.242Z,92.40
2023-04-22T22:26:52.614Z,92.40
2023-04-22T22:29:20.956Z,92.40
2023-04-22T22:31:49.277Z,92.40
2023-04-22T22:34:17.648Z,92.40
2023-04-22T22:36:47.329Z,92.40
2023-04-22T22:39:16.333Z,92.40
2023-04-22T22:41:45.132Z,92.40
2023-04-22T22:44:13.353Z,92.40
2023-04-22T22:46:41.841Z,92.40
2023-04-22T22:49:10.806Z,92.40
2023-04-22T22:51:39.099Z,92.40
2023-04-22T22:54:08.785Z,92.40
2023-04-22T22:56:37.119Z,92.30
2023-04-22T22:59:05.390Z,92.30
2023-04-22T23:01:33.763Z,92.30
2023-04-22T23:04:02.390Z,92.30
2023-04-22T23:06:31.848Z,92.30
2023-04-22T23:09:00.129Z,92.30
2023-04-22T23:11:29.781Z,92.40
2023-04-22T23:13:58.091Z,92.30
2023-04-22T23:16:27.099Z,92.40
2023-04-22T23:18:57.411Z,92.40
2023-04-22T23:21:26.320Z,92.40
2023-04-22T23:23:56.015Z,92.40
2023-04-22T23:26:24.848Z,92.40
2023-04-22T23:28:55.358Z,92.40
2023-04-22T23:31:25.002Z,92.40
2023-04-22T23:33:56.472Z,92.40
2023-04-22T23:36:26.414Z,92.40
2023-04-22T23:38:57.381Z,92.40
2023-04-22T23:41:26.279Z,92.40
2023-04-22T23:43:56.007Z,92.40
2023-04-22T23:46:24.457Z,92.40
2023-04-22T23:48:53.022Z,92.40
2023-04-22T23:51:21.493Z,92.40
2023-04-22T23:53:49.913Z,92.40
2023-04-22T23:56:21.168Z,92.40
2023-04-22T23:58:49.996Z,92.40
